sensor_id;sensor_type;location;lat;lon;timestamp;temperature;humidity
30148;DHT22;16960;49.404;8.248;2023-03-01T00:00:01;20.20;31.30
30148;DHT22;16960;49.404;8.248;2023-03-01T00:02:29;20.20;31.30
30148;DHT22;16960;49.404;8.248;2023-03-01T00:04:56;20.20;31.40
30148;DHT22;16960;49.404;8.248;2023-03-01T00:07:24;20.20;31.40
30148;DHT22;16960;49.404;8.248;2023-03-01T00:09:51;20.20;31.40
30148;DHT22;16960;49.404;8.248;2023-03-01T00:12:18;20.20;31.40
30148;DHT22;16960;49.404;8.248;2023-03-01T00:14:45;20.10;31.40
30148;DHT22;16960;49.404;8.248;2023-03-01T00:17:11;20.20;31.50
30148;DHT22;16960;49.404;8.248;2023-03-01T00:19:39;20.20;31.50
30148;DHT22;16960;49.404;8.248;2023-03-01T00:22:05;20.10;31.50
30148;DHT22;16960;49.404;8.248;2023-03-01T00:24:34;20.10;31.50
30148;DHT22;16960;49.404;8.248;2023-03-01T00:27:01;20.10;31.50
30148;DHT22;16960;49.404;8.248;2023-03-01T00:29:28;20.10;31.50
30148;DHT22;16960;49.404;8.248;2023-03-01T00:31:55;20.10;31.60
30148;DHT22;16960;49.404;8.248;2023-03-01T00:34:22;20.00;31.50
30148;DHT22;16960;49.404;8.248;2023-03-01T00:36:48;20.10;31.50
30148;DHT22;16960;49.404;8.248;2023-03-01T00:39:15;20.10;31.60
30148;DHT22;16960;49.404;8.248;2023-03-01T00:41:44;20.10;31.60
30148;DHT22;16960;49.404;8.248;2023-03-01T00:44:11;20.10;31.60
30148;DHT22;16960;49.404;8.248;2023-03-01T00:46:38;20.10;31.60
30148;DHT22;16960;49.404;8.248;2023-03-01T00:49:05;20.10;31.60
30148;DHT22;16960;49.404;8.248;2023-03-01T00:51:32;20.10;31.60
30148;DHT22;16960;49.404;8.248;2023-03-01T00:54:00;20.00;31.60
30148;DHT22;16960;49.404;8.248;2023-03-01T00:56:28;20.10;31.70
30148;DHT22;16960;49.404;8.248;2023-03-01T00:58:57;20.00;31.70
30148;DHT22;16960;49.404;8.248;2023-03-01T01:01:25;20.00;31.70
30148;DHT22;16960;49.404;8.248;2023-03-01T01:03:54;20.00;31.70
30148;DHT22;16960;49.404;8.248;2023-03-01T01:06:23;20.00;31.80
30148;DHT22;16960;49.404;8.248;2023-03-01T01:08:51;20.00;31.80
30148;DHT22;16960;49.404;8.248;2023-03-01T01:11:20;20.00;31.80
30148;DHT22;16960;49.404;8.248;2023-03-01T01:13:47;20.00;31.80
30148;DHT22;16960;49.404;8.248;2023-03-01T01:16:17;20.00;31.80
30148;DHT22;16960;49.404;8.248;2023-03-01T01:18:44;20.00;31.80
30148;DHT22;16960;49.404;8.248;2023-03-01T01:21:14;20.00;31.90
30148;DHT22;16960;49.404;8.248;2023-03-01T01:23:42;20.00;31.90
30148;DHT22;16960;49.404;8.248;2023-03-01T01:26:11;20.00;31.90
30148;DHT22;16960;49.404;8.248;2023-03-01T01:28:38;20.00;31.90
30148;DHT22;16960;49.404;8.248;2023-03-01T01:31:06;20.00;31.90
30148;DHT22;16960;49.404;8.248;2023-03-01T01:33:34;19.90;31.90
30148;DHT22;16960;49.404;8.248;2023-03-01T01:36:03;19.90;31.90
30148;DHT22;16960;49.404;8.248;2023-03-01T01:38:30;19.90;31.90
30148;DHT22;16960;49.404;8.248;2023-03-01T01:40:58;19.90;31.90
30148;DHT22;16960;49.404;8.248;2023-03-01T01:43:28;19.90;31.90
30148;DHT22;16960;49.404;8.248;2023-03-01T01:45:57;19.90;31.90
30148;DHT22;16960;49.404;8.248;2023-03-01T01:48:32;19.90;31.90
30148;DHT22;16960;49.404;8.248;2023-03-01T01:51:10;19.90;31.90
30148;DHT22;16960;49.404;8.248;2023-03-01T01:53:38;19.90;31.90
30148;DHT22;16960;49.404;8.248;2023-03-01T01:56:08;19.90;31.90
30148;DHT22;16960;49.404;8.248;2023-03-01T01:58:36;19.90;31.90
30148;DHT22;16960;49.404;8.248;2023-03-01T02:01:04;19.90;31.90
30148;DHT22;16960;49.404;8.248;2023-03-01T02:03:33;19.90;31.80
30148;DHT22;16960;49.404;8.248;2023-03-01T02:06:10;19.90;31.80
30148;DHT22;16960;49.404;8.248;2023-03-01T02:08:40;19.90;31.80
30148;DHT22;16960;49.404;8.248;2023-03-01T02:11:10;19.90;31.80
30148;DHT22;16960;49.404;8.248;2023-03-01T02:13:37;19.80;31.80
30148;DHT22;16960;49.404;8.248;2023-03-01T02:16:05;19.80;31.90
30148;DHT22;16960;49.404;8.248;2023-03-01T02:18:34;19.80;31.80
30148;DHT22;16960;49.404;8.248;2023-03-01T02:21:13;19.80;31.80
30148;DHT22;16960;49.404;8.248;2023-03-01T02:23:42;19.80;31.80
30148;DHT22;16960;49.404;8.248;2023-03-01T02:26:15;19.80;31.80
30148;DHT22;16960;49.404;8.248;2023-03-01T02:28:46;19.80;31.80
30148;DHT22;16960;49.404;8.248;2023-03-01T02:31:16;19.80;31.80
30148;DHT22;16960;49.404;8.248;2023-03-01T02:34:01;19.80;31.80
30148;DHT22;16960;49.404;8.248;2023-03-01T02:36:34;19.80;31.80
30148;DHT22;16960;49.404;8.248;2023-03-01T02:39:03;19.80;31.80
30148;DHT22;16960;49.404;8.248;2023-03-01T02:41:34;19.80;31.90
30148;DHT22;16960;49.404;8.248;2023-03-01T02:44:04;19.80;31.90
30148;DHT22;16960;49.404;8.248;2023-03-01T02:46:31;19.80;31.90
30148;DHT22;16960;49.404;8.248;2023-03-01T02:48:59;19.80;31.90
30148;DHT22;16960;49.404;8.248;2023-03-01T02:51:37;19.80;32.00
30148;DHT22;16960;49.404;8.248;2023-03-01T02:54:12;19.70;32.00
30148;DHT22;16960;49.404;8.248;2023-03-01T02:56:43;19.70;31.90
30148;DHT22;16960;49.404;8.248;2023-03-01T02:59:16;19.70;32.00
30148;DHT22;16960;49.404;8.248;2023-03-01T03:01:43;19.70;32.00
30148;DHT22;16960;49.404;8.248;2023-03-01T03:04:13;19.70;31.90
30148;DHT22;16960;49.404;8.248;2023-03-01T03:06:42;19.70;31.90
30148;DHT22;16960;49.404;8.248;2023-03-01T03:09:09;19.70;31.90
30148;DHT22;16960;49.404;8.248;2023-03-01T03:11:36;19.70;31.90
30148;DHT22;16960;49.404;8.248;2023-03-01T03:14:05;19.70;31.90
30148;DHT22;16960;49.404;8.248;2023-03-01T03:16:40;19.70;31.90
30148;DHT22;16960;49.404;8.248;2023-03-01T03:19:07;19.70;31.90
30148;DHT22;16960;49.404;8.248;2023-03-01T03:21:34;19.70;31.90
30148;DHT22;16960;49.404;8.248;2023-03-01T03:24:01;19.70;31.90
30148;DHT22;16960;49.404;8.248;2023-03-01T03:26:28;19.70;31.90
30148;DHT22;16960;49.404;8.248;2023-03-01T03:28:56;19.70;31.90
30148;DHT22;16960;49.404;8.248;2023-03-01T03:31:23;19.70;31.90
30148;DHT22;16960;49.404;8.248;2023-03-01T03:33:51;19.70;31.90
30148;DHT22;16960;49.404;8.248;2023-03-01T03:36:20;19.70;31.90
30148;DHT22;16960;49.404;8.248;2023-03-01T03:38:47;19.60;31.90
30148;DHT22;16960;49.404;8.248;2023-03-01T03:41:14;19.70;32.00
30148;DHT22;16960;49.404;8.248;2023-03-01T03:43:42;19.60;31.80
30148;DHT22;16960;49.404;8.248;2023-03-01T03:46:10;19.60;31.80
30148;DHT22;16960;49.404;8.248;2023-03-01T03:48:38;19.60;31.80
30148;DHT22;16960;49.404;8.248;2023-03-01T03:51:09;19.70;31.90
30148;DHT22;16960;49.404;8.248;2023-03-01T03:53:36;19.70;31.90
30148;DHT22;16960;49.404;8.248;2023-03-01T03:56:04;19.60;32.40
30148;DHT22;16960;49.404;8.248;2023-03-01T03:58:31;19.60;31.80
30148;DHT22;16960;49.404;8.248;2023-03-01T04:00:57;19.60;31.80
30148;DHT22;16960;49.404;8.248;2023-03-01T04:03:27;19.60;31.80
30148;DHT22;16960;49.404;8.248;2023-03-01T04:05:56;19.60;31.80
30148;DHT22;16960;49.404;8.248;2023-03-01T04:08:25;19.60;31.80
30148;DHT22;16960;49.404;8.248;2023-03-01T04:10:56;19.60;31.80
30148;DHT22;16960;49.404;8.248;2023-03-01T04:13:24;19.60;31.80
30148;DHT22;16960;49.404;8.248;2023-03-01T04:15:51;19.60;31.80
30148;DHT22;16960;49.404;8.248;2023-03-01T04:18:20;19.60;31.80
30148;DHT22;16960;49.404;8.248;2023-03-01T04:20:48;19.60;31.90
30148;DHT22;16960;49.404;8.248;2023-03-01T04:23:18;19.60;31.90
30148;DHT22;16960;49.404;8.248;2023-03-01T04:25:49;19.60;31.90
30148;DHT22;16960;49.404;8.248;2023-03-01T04:28:21;19.60;31.90
30148;DHT22;16960;49.404;8.248;2023-03-01T04:30:50;19.60;31.90
30148;DHT22;16960;49.404;8.248;2023-03-01T04:33:17;19.60;31.90
30148;DHT22;16960;49.404;8.248;2023-03-01T04:35:44;19.60;31.90
30148;DHT22;16960;49.404;8.248;2023-03-01T04:38:14;19.50;31.90
30148;DHT22;16960;49.404;8.248;2023-03-01T04:40:41;19.50;32.00
30148;DHT22;16960;49.404;8.248;2023-03-01T04:43:10;19.50;32.00
30148;DHT22;16960;49.404;8.248;2023-03-01T04:45:39;19.50;32.00
30148;DHT22;16960;49.404;8.248;2023-03-01T04:48:07;19.50;32.00
30148;DHT22;16960;49.404;8.248;2023-03-01T04:50:34;19.50;32.00
30148;DHT22;16960;49.404;8.248;2023-03-01T04:53:02;19.50;32.00
30148;DHT22;16960;49.404;8.248;2023-03-01T04:55:29;19.50;32.00
30148;DHT22;16960;49.404;8.248;2023-03-01T04:57:57;19.50;32.00
30148;DHT22;16960;49.404;8.248;2023-03-01T05:00:25;19.50;32.00
30148;DHT22;16960;49.404;8.248;2023-03-01T05:02:53;19.50;32.00
30148;DHT22;16960;49.404;8.248;2023-03-01T05:05:21;19.50;32.00
30148;DHT22;16960;49.404;8.248;2023-03-01T05:07:52;19.50;32.00
30148;DHT22;16960;49.404;8.248;2023-03-01T05:10:19;19.50;32.00
30148;DHT22;16960;49.404;8.248;2023-03-01T05:12:46;19.50;31.80
30148;DHT22;16960;49.404;8.248;2023-03-01T05:15:13;19.50;31.80
30148;DHT22;16960;49.404;8.248;2023-03-01T05:17:41;19.60;31.80
30148;DHT22;16960;49.404;8.248;2023-03-01T05:20:10;19.60;31.70
30148;DHT22;16960;49.404;8.248;2023-03-01T05:22:37;19.70;31.80
30148;DHT22;16960;49.404;8.248;2023-03-01T05:25:05;19.70;31.60
30148;DHT22;16960;49.404;8.248;2023-03-01T05:27:33;19.80;31.60
30148;DHT22;16960;49.404;8.248;2023-03-01T05:30:00;19.70;31.60
30148;DHT22;16960;49.404;8.248;2023-03-01T05:32:41;19.80;31.50
30148;DHT22;16960;49.404;8.248;2023-03-01T05:35:10;19.80;31.50
30148;DHT22;16960;49.404;8.248;2023-03-01T05:37:42;19.80;31.50
30148;DHT22;16960;49.404;8.248;2023-03-01T05:40:11;19.90;31.60
30148;DHT22;16960;49.404;8.248;2023-03-01T05:42:43;19.90;31.50
30148;DHT22;16960;49.404;8.248;2023-03-01T05:45:10;19.90;31.50
30148;DHT22;16960;49.404;8.248;2023-03-01T05:47:38;20.00;31.40
30148;DHT22;16960;49.404;8.248;2023-03-01T05:50:11;20.00;31.40
30148;DHT22;16960;49.404;8.248;2023-03-01T05:52:39;20.00;31.40
30148;DHT22;16960;49.404;8.248;2023-03-01T05:55:07;20.10;31.40
30148;DHT22;16960;49.404;8.248;2023-03-01T05:57:34;20.10;31.40
30148;DHT22;16960;49.404;8.248;2023-03-01T06:00:01;20.10;31.40
30148;DHT22;16960;49.404;8.248;2023-03-01T06:02:28;20.10;31.40
30148;DHT22;16960;49.404;8.248;2023-03-01T06:04:55;20.20;31.30
30148;DHT22;16960;49.404;8.248;2023-03-01T06:07:24;20.20;31.30
30148;DHT22;16960;49.404;8.248;2023-03-01T06:09:50;20.20;31.30
30148;DHT22;16960;49.404;8.248;2023-03-01T06:12:17;20.20;31.20
30148;DHT22;16960;49.404;8.248;2023-03-01T06:14:45;20.30;31.30
30148;DHT22;16960;49.404;8.248;2023-03-01T06:17:13;20.30;31.20
30148;DHT22;16960;49.404;8.248;2023-03-01T06:19:40;20.30;31.20
30148;DHT22;16960;49.404;8.248;2023-03-01T06:22:07;20.30;31.20
30148;DHT22;16960;49.404;8.248;2023-03-01T06:24:36;20.30;31.20
30148;DHT22;16960;49.404;8.248;2023-03-01T06:27:03;20.40;31.10
30148;DHT22;16960;49.404;8.248;2023-03-01T06:29:30;20.40;31.10
30148;DHT22;16960;49.404;8.248;2023-03-01T06:31:57;20.40;31.20
30148;DHT22;16960;49.404;8.248;2023-03-01T06:34:24;20.40;31.10
30148;DHT22;16960;49.404;8.248;2023-03-01T06:36:51;20.50;31.20
30148;DHT22;16960;49.404;8.248;2023-03-01T06:39:18;20.50;31.10
30148;DHT22;16960;49.404;8.248;2023-03-01T06:41:46;20.50;31.00
30148;DHT22;16960;49.404;8.248;2023-03-01T06:44:13;20.50;31.00
30148;DHT22;16960;49.404;8.248;2023-03-01T06:46:40;20.50;31.00
30148;DHT22;16960;49.404;8.248;2023-03-01T06:49:07;20.60;30.80
30148;DHT22;16960;49.404;8.248;2023-03-01T06:51:35;20.60;30.70
30148;DHT22;16960;49.404;8.248;2023-03-01T06:54:03;20.60;30.50
30148;DHT22;16960;49.404;8.248;2023-03-01T06:56:30;20.60;30.40
30148;DHT22;16960;49.404;8.248;2023-03-01T06:58:59;20.60;30.30
30148;DHT22;16960;49.404;8.248;2023-03-01T07:01:26;20.70;30.30
30148;DHT22;16960;49.404;8.248;2023-03-01T07:03:53;20.60;30.20
30148;DHT22;16960;49.404;8.248;2023-03-01T07:06:19;20.60;30.00
30148;DHT22;16960;49.404;8.248;2023-03-01T07:08:46;20.70;30.10
30148;DHT22;16960;49.404;8.248;2023-03-01T07:11:14;20.60;29.90
30148;DHT22;16960;49.404;8.248;2023-03-01T07:13:41;20.60;29.90
30148;DHT22;16960;49.404;8.248;2023-03-01T07:16:09;20.70;29.80
30148;DHT22;16960;49.404;8.248;2023-03-01T07:18:36;20.70;30.10
30148;DHT22;16960;49.404;8.248;2023-03-01T07:21:05;20.70;30.30
30148;DHT22;16960;49.404;8.248;2023-03-01T07:23:32;20.80;30.20
30148;DHT22;16960;49.404;8.248;2023-03-01T07:25:59;20.80;30.10
30148;DHT22;16960;49.404;8.248;2023-03-01T07:28:26;20.80;30.10
30148;DHT22;16960;49.404;8.248;2023-03-01T07:30:54;20.90;30.00
30148;DHT22;16960;49.404;8.248;2023-03-01T07:33:22;20.90;30.50
30148;DHT22;16960;49.404;8.248;2023-03-01T07:35:56;21.00;29.90
30148;DHT22;16960;49.404;8.248;2023-03-01T07:38:23;21.00;29.70
30148;DHT22;16960;49.404;8.248;2023-03-01T07:40:50;21.00;29.20
30148;DHT22;16960;49.404;8.248;2023-03-01T07:43:17;21.10;29.20
30148;DHT22;16960;49.404;8.248;2023-03-01T07:45:44;21.10;29.10
30148;DHT22;16960;49.404;8.248;2023-03-01T07:48:11;21.10;29.10
30148;DHT22;16960;49.404;8.248;2023-03-01T07:50:39;21.10;29.10
30148;DHT22;16960;49.404;8.248;2023-03-01T07:53:06;21.20;29.20
30148;DHT22;16960;49.404;8.248;2023-03-01T07:55:33;21.20;29.00
30148;DHT22;16960;49.404;8.248;2023-03-01T07:58:00;21.20;28.80
30148;DHT22;16960;49.404;8.248;2023-03-01T08:00:27;21.20;28.70
30148;DHT22;16960;49.404;8.248;2023-03-01T08:02:54;21.20;28.70
30148;DHT22;16960;49.404;8.248;2023-03-01T08:05:21;21.20;28.80
30148;DHT22;16960;49.404;8.248;2023-03-01T08:07:49;21.20;29.00
30148;DHT22;16960;49.404;8.248;2023-03-01T08:10:17;21.30;29.00
30148;DHT22;16960;49.404;8.248;2023-03-01T08:12:44;21.30;29.00
30148;DHT22;16960;49.404;8.248;2023-03-01T08:15:11;21.30;29.00
30148;DHT22;16960;49.404;8.248;2023-03-01T08:17:38;21.20;28.90
30148;DHT22;16960;49.404;8.248;2023-03-01T08:20:05;21.30;28.90
30148;DHT22;16960;49.404;8.248;2023-03-01T08:22:33;21.20;28.80
30148;DHT22;16960;49.404;8.248;2023-03-01T08:25:01;21.20;28.80
30148;DHT22;16960;49.404;8.248;2023-03-01T08:27:28;21.20;28.80
30148;DHT22;16960;49.404;8.248;2023-03-01T08:29:55;21.20;28.90
30148;DHT22;16960;49.404;8.248;2023-03-01T08:32:22;21.20;28.80
30148;DHT22;16960;49.404;8.248;2023-03-01T08:34:49;21.20;29.00
30148;DHT22;16960;49.404;8.248;2023-03-01T08:37:16;21.30;28.90
30148;DHT22;16960;49.404;8.248;2023-03-01T08:39:43;21.30;28.90
30148;DHT22;16960;49.404;8.248;2023-03-01T08:42:11;21.30;28.90
30148;DHT22;16960;49.404;8.248;2023-03-01T08:44:38;21.30;29.00
30148;DHT22;16960;49.404;8.248;2023-03-01T08:47:05;21.30;28.70
30148;DHT22;16960;49.404;8.248;2023-03-01T08:49:32;21.30;28.80
30148;DHT22;16960;49.404;8.248;2023-03-01T08:51:59;21.30;28.90
30148;DHT22;16960;49.404;8.248;2023-03-01T08:54:26;21.30;28.90
30148;DHT22;16960;49.404;8.248;2023-03-01T08:56:53;21.30;28.90
30148;DHT22;16960;49.404;8.248;2023-03-01T08:59:21;21.30;28.70
30148;DHT22;16960;49.404;8.248;2023-03-01T09:01:48;21.30;28.80
30148;DHT22;16960;49.404;8.248;2023-03-01T09:04:15;21.30;28.80
30148;DHT22;16960;49.404;8.248;2023-03-01T09:06:43;21.30;28.90
30148;DHT22;16960;49.404;8.248;2023-03-01T09:09:13;21.30;28.90
30148;DHT22;16960;49.404;8.248;2023-03-01T09:11:41;21.30;28.80
30148;DHT22;16960;49.404;8.248;2023-03-01T09:14:09;21.30;28.90
30148;DHT22;16960;49.404;8.248;2023-03-01T09:16:37;21.30;28.80
30148;DHT22;16960;49.404;8.248;2023-03-01T09:19:05;21.40;28.80
30148;DHT22;16960;49.404;8.248;2023-03-01T09:21:32;21.40;28.80
30148;DHT22;16960;49.404;8.248;2023-03-01T09:23:59;21.50;28.90
30148;DHT22;16960;49.404;8.248;2023-03-01T09:26:26;21.50;28.90
30148;DHT22;16960;49.404;8.248;2023-03-01T09:28:55;21.50;28.80
30148;DHT22;16960;49.404;8.248;2023-03-01T09:31:23;21.60;28.70
30148;DHT22;16960;49.404;8.248;2023-03-01T09:33:53;21.60;28.70
30148;DHT22;16960;49.404;8.248;2023-03-01T09:36:23;21.60;28.60
30148;DHT22;16960;49.404;8.248;2023-03-01T09:38:51;21.70;28.70
30148;DHT22;16960;49.404;8.248;2023-03-01T09:41:31;21.70;28.70
30148;DHT22;16960;49.404;8.248;2023-03-01T09:44:04;21.70;28.50
30148;DHT22;16960;49.404;8.248;2023-03-01T09:46:40;21.70;28.50
30148;DHT22;16960;49.404;8.248;2023-03-01T09:49:14;21.80;28.20
30148;DHT22;16960;49.404;8.248;2023-03-01T09:51:43;21.70;28.40
30148;DHT22;16960;49.404;8.248;2023-03-01T09:54:14;21.70;28.30
30148;DHT22;16960;49.404;8.248;2023-03-01T09:56:46;21.80;28.50
30148;DHT22;16960;49.404;8.248;2023-03-01T09:59:25;21.80;28.40
30148;DHT22;16960;49.404;8.248;2023-03-01T10:01:58;21.80;28.40
30148;DHT22;16960;49.404;8.248;2023-03-01T10:04:37;21.80;28.40
30148;DHT22;16960;49.404;8.248;2023-03-01T10:07:17;21.80;28.50
30148;DHT22;16960;49.404;8.248;2023-03-01T10:09:48;21.80;28.50
30148;DHT22;16960;49.404;8.248;2023-03-01T10:12:17;21.80;28.40
30148;DHT22;16960;49.404;8.248;2023-03-01T10:14:52;21.80;28.20
30148;DHT22;16960;49.404;8.248;2023-03-01T10:17:27;21.80;28.30
30148;DHT22;16960;49.404;8.248;2023-03-01T10:20:15;21.80;28.30
30148;DHT22;16960;49.404;8.248;2023-03-01T10:22:43;22.00;28.10
30148;DHT22;16960;49.404;8.248;2023-03-01T10:25:15;22.30;28.00
30148;DHT22;16960;49.404;8.248;2023-03-01T10:28:00;22.40;27.80
30148;DHT22;16960;49.404;8.248;2023-03-01T10:30:34;22.60;27.70
30148;DHT22;16960;49.404;8.248;2023-03-01T10:33:09;22.70;27.70
30148;DHT22;16960;49.404;8.248;2023-03-01T10:35:41;22.90;27.80
30148;DHT22;16960;49.404;8.248;2023-03-01T10:38:10;22.90;27.90
30148;DHT22;16960;49.404;8.248;2023-03-01T10:40:51;23.00;27.80
30148;DHT22;16960;49.404;8.248;2023-03-01T10:43:18;23.00;28.00
30148;DHT22;16960;49.404;8.248;2023-03-01T10:45:46;22.90;27.90
30148;DHT22;16960;49.404;8.248;2023-03-01T10:48:15;23.00;28.00
30148;DHT22;16960;49.404;8.248;2023-03-01T10:50:45;23.00;28.00
30148;DHT22;16960;49.404;8.248;2023-03-01T10:53:27;22.90;28.10
30148;DHT22;16960;49.404;8.248;2023-03-01T10:56:04;23.00;28.20
30148;DHT22;16960;49.404;8.248;2023-03-01T10:58:32;23.00;28.10
30148;DHT22;16960;49.404;8.248;2023-03-01T11:01:05;23.00;28.10
30148;DHT22;16960;49.404;8.248;2023-03-01T11:03:33;23.10;28.20
30148;DHT22;16960;49.404;8.248;2023-03-01T11:06:05;23.00;28.10
30148;DHT22;16960;49.404;8.248;2023-03-01T11:08:36;23.10;28.20
30148;DHT22;16960;49.404;8.248;2023-03-01T11:11:22;23.00;28.10
30148;DHT22;16960;49.404;8.248;2023-03-01T11:13:56;23.00;28.20
30148;DHT22;16960;49.404;8.248;2023-03-01T11:16:26;23.00;28.20
30148;DHT22;16960;49.404;8.248;2023-03-01T11:18:59;23.00;28.20
30148;DHT22;16960;49.404;8.248;2023-03-01T11:21:30;23.00;28.30
30148;DHT22;16960;49.404;8.248;2023-03-01T11:24:00;23.00;28.30
30148;DHT22;16960;49.404;8.248;2023-03-01T11:26:28;22.90;28.20
30148;DHT22;16960;49.404;8.248;2023-03-01T11:29:02;22.90;28.40
30148;DHT22;16960;49.404;8.248;2023-03-01T11:31:31;22.90;28.30
30148;DHT22;16960;49.404;8.248;2023-03-01T11:34:06;22.90;28.40
30148;DHT22;16960;49.404;8.248;2023-03-01T11:36:45;22.90;28.30
30148;DHT22;16960;49.404;8.248;2023-03-01T11:39:23;22.90;28.40
30148;DHT22;16960;49.404;8.248;2023-03-01T11:42:00;22.90;28.30
30148;DHT22;16960;49.404;8.248;2023-03-01T11:44:31;22.90;28.40
30148;DHT22;16960;49.404;8.248;2023-03-01T11:47:16;22.90;28.30
30148;DHT22;16960;49.404;8.248;2023-03-01T11:50:09;22.90;28.40
30148;DHT22;16960;49.404;8.248;2023-03-01T11:52:48;22.90;28.40
30148;DHT22;16960;49.404;8.248;2023-03-01T11:55:26;22.90;28.40
30148;DHT22;16960;49.404;8.248;2023-03-01T11:58:15;22.90;28.60
30148;DHT22;16960;49.404;8.248;2023-03-01T12:00:59;22.90;28.70
30148;DHT22;16960;49.404;8.248;2023-03-01T12:03:38;22.90;28.80
30148;DHT22;16960;49.404;8.248;2023-03-01T12:06:24;22.90;28.70
30148;DHT22;16960;49.404;8.248;2023-03-01T12:09:02;22.80;28.70
30148;DHT22;16960;49.404;8.248;2023-03-01T12:11:40;22.80;28.80
30148;DHT22;16960;49.404;8.248;2023-03-01T12:14:23;22.80;28.70
30148;DHT22;16960;49.404;8.248;2023-03-01T12:17:07;22.80;28.90
30148;DHT22;16960;49.404;8.248;2023-03-01T12:19:55;22.70;28.90
30148;DHT22;16960;49.404;8.248;2023-03-01T12:22:30;22.70;29.00
30148;DHT22;16960;49.404;8.248;2023-03-01T12:25:14;22.70;29.10
30148;DHT22;16960;49.404;8.248;2023-03-01T12:28:04;22.70;28.50
30148;DHT22;16960;49.404;8.248;2023-03-01T12:30:43;22.70;28.40
30148;DHT22;16960;49.404;8.248;2023-03-01T12:33:21;22.60;28.20
30148;DHT22;16960;49.404;8.248;2023-03-01T12:36:15;22.70;28.20
30148;DHT22;16960;49.404;8.248;2023-03-01T12:38:48;22.70;28.00
30148;DHT22;16960;49.404;8.248;2023-03-01T12:41:42;22.60;27.70
30148;DHT22;16960;49.404;8.248;2023-03-01T12:44:24;22.60;27.70
30148;DHT22;16960;49.404;8.248;2023-03-01T12:47:07;22.60;27.50
30148;DHT22;16960;49.404;8.248;2023-03-01T12:49:41;22.60;27.60
30148;DHT22;16960;49.404;8.248;2023-03-01T12:52:13;22.60;27.50
30148;DHT22;16960;49.404;8.248;2023-03-01T12:54:41;22.60;27.20
30148;DHT22;16960;49.404;8.248;2023-03-01T12:57:15;22.60;27.30
30148;DHT22;16960;49.404;8.248;2023-03-01T12:59:51;22.60;27.20
30148;DHT22;16960;49.404;8.248;2023-03-01T13:02:24;22.60;27.20
30148;DHT22;16960;49.404;8.248;2023-03-01T13:05:00;22.60;27.10
30148;DHT22;16960;49.404;8.248;2023-03-01T13:07:32;22.50;26.80
30148;DHT22;16960;49.404;8.248;2023-03-01T13:10:18;22.50;26.90
30148;DHT22;16960;49.404;8.248;2023-03-01T13:13:01;22.50;27.20
30148;DHT22;16960;49.404;8.248;2023-03-01T13:15:33;22.50;27.50
30148;DHT22;16960;49.404;8.248;2023-03-01T13:18:03;22.50;27.90
30148;DHT22;16960;49.404;8.248;2023-03-01T13:20:44;22.50;28.10
30148;DHT22;16960;49.404;8.248;2023-03-01T13:23:24;22.50;28.20
30148;DHT22;16960;49.404;8.248;2023-03-01T13:26:13;22.50;28.30
30148;DHT22;16960;49.404;8.248;2023-03-01T13:28:54;22.50;28.40
30148;DHT22;16960;49.404;8.248;2023-03-01T13:34:53;22.50;28.50
30148;DHT22;16960;49.404;8.248;2023-03-01T13:37:23;22.50;28.50
30148;DHT22;16960;49.404;8.248;2023-03-01T13:39:51;22.50;28.50
30148;DHT22;16960;49.404;8.248;2023-03-01T13:42:40;22.60;28.60
30148;DHT22;16960;49.404;8.248;2023-03-01T13:45:23;22.50;28.60
30148;DHT22;16960;49.404;8.248;2023-03-01T13:47:57;22.60;28.60
30148;DHT22;16960;49.404;8.248;2023-03-01T13:50:26;22.50;28.70
30148;DHT22;16960;49.404;8.248;2023-03-01T13:52:56;22.50;28.70
30148;DHT22;16960;49.404;8.248;2023-03-01T13:55:30;22.50;28.70
30148;DHT22;16960;49.404;8.248;2023-03-01T13:58:00;22.50;28.70
30148;DHT22;16960;49.404;8.248;2023-03-01T14:00:34;22.50;28.70
30148;DHT22;16960;49.404;8.248;2023-03-01T14:03:09;22.50;28.80
30148;DHT22;16960;49.404;8.248;2023-03-01T14:05:36;22.60;28.80
30148;DHT22;16960;49.404;8.248;2023-03-01T14:08:04;22.60;28.80
30148;DHT22;16960;49.404;8.248;2023-03-01T14:10:36;22.60;28.90
30148;DHT22;16960;49.404;8.248;2023-03-01T14:13:22;22.60;28.90
30148;DHT22;16960;49.404;8.248;2023-03-01T14:16:03;22.60;28.90
30148;DHT22;16960;49.404;8.248;2023-03-01T14:18:36;22.60;28.90
30148;DHT22;16960;49.404;8.248;2023-03-01T14:21:08;22.60;28.90
30148;DHT22;16960;49.404;8.248;2023-03-01T14:23:38;22.60;28.90
30148;DHT22;16960;49.404;8.248;2023-03-01T14:26:08;22.60;28.90
30148;DHT22;16960;49.404;8.248;2023-03-01T14:28:38;22.60;28.90
30148;DHT22;16960;49.404;8.248;2023-03-01T14:31:32;22.60;28.90
30148;DHT22;16960;49.404;8.248;2023-03-01T14:34:00;22.60;28.90
30148;DHT22;16960;49.404;8.248;2023-03-01T14:36:29;22.60;29.10
30148;DHT22;16960;49.404;8.248;2023-03-01T14:38:56;22.60;28.90
30148;DHT22;16960;49.404;8.248;2023-03-01T14:41:32;22.60;28.80
30148;DHT22;16960;49.404;8.248;2023-03-01T14:44:01;22.60;28.80
30148;DHT22;16960;49.404;8.248;2023-03-01T14:46:33;22.60;29.00
30148;DHT22;16960;49.404;8.248;2023-03-01T14:49:03;22.60;28.90
30148;DHT22;16960;49.404;8.248;2023-03-01T14:51:34;22.60;28.90
30148;DHT22;16960;49.404;8.248;2023-03-01T14:54:01;22.50;28.90
30148;DHT22;16960;49.404;8.248;2023-03-01T14:56:43;22.50;29.10
30148;DHT22;16960;49.404;8.248;2023-03-01T14:59:11;22.50;29.10
30148;DHT22;16960;49.404;8.248;2023-03-01T15:01:41;22.50;29.30
30148;DHT22;16960;49.404;8.248;2023-03-01T15:04:12;22.60;29.30
30148;DHT22;16960;49.404;8.248;2023-03-01T15:06:40;22.60;29.30
30148;DHT22;16960;49.404;8.248;2023-03-01T15:09:13;22.60;29.20
30148;DHT22;16960;49.404;8.248;2023-03-01T15:11:41;22.60;29.10
30148;DHT22;16960;49.404;8.248;2023-03-01T15:14:36;22.60;29.20
30148;DHT22;16960;49.404;8.248;2023-03-01T15:17:21;22.60;29.30
30148;DHT22;16960;49.404;8.248;2023-03-01T15:19:50;22.60;29.30
30148;DHT22;16960;49.404;8.248;2023-03-01T15:22:17;22.60;29.40
30148;DHT22;16960;49.404;8.248;2023-03-01T15:24:47;22.60;29.30
30148;DHT22;16960;49.404;8.248;2023-03-01T15:27:16;22.60;29.30
30148;DHT22;16960;49.404;8.248;2023-03-01T15:29:48;22.60;29.50
30148;DHT22;16960;49.404;8.248;2023-03-01T15:32:28;22.60;29.40
30148;DHT22;16960;49.404;8.248;2023-03-01T15:34:56;22.60;29.40
30148;DHT22;16960;49.404;8.248;2023-03-01T15:37:39;22.60;29.40
30148;DHT22;16960;49.404;8.248;2023-03-01T15:40:18;22.60;29.30
30148;DHT22;16960;49.404;8.248;2023-03-01T15:42:46;22.50;29.40
30148;DHT22;16960;49.404;8.248;2023-03-01T15:45:22;22.60;29.40
30148;DHT22;16960;49.404;8.248;2023-03-01T15:47:51;22.60;30.00
30148;DHT22;16960;49.404;8.248;2023-03-01T15:50:21;22.60;29.50
30148;DHT22;16960;49.404;8.248;2023-03-01T15:52:49;22.60;29.40
30148;DHT22;16960;49.404;8.248;2023-03-01T15:55:19;22.60;29.40